sensor_id;sensor_type;location;lat;lon;timestamp;P1;durP1;ratioP1;P2;durP2;ratioP2
30147;SDS011;16960;49.404;8.248;2024-01-06T00:01:30;2.00;;;1.80;;
30147;SDS011;16960;49.404;8.248;2024-01-06T00:03:57;2.10;;;1.57;;
30147;SDS011;16960;49.404;8.248;2024-01-06T00:06:24;2.30;;;1.37;;
30147;SDS011;16960;49.404;8.248;2024-01-06T00:08:51;2.70;;;1.50;;
30147;SDS011;16960;49.404;8.248;2024-01-06T00:11:19;2.07;;;1.87;;
30147;SDS011;16960;49.404;8.248;2024-01-06T00:13:47;1.63;;;1.53;;
30147;SDS011;16960;49.404;8.248;2024-01-06T00:16:16;1.53;;;1.43;;
30147;SDS011;16960;49.404;8.248;2024-01-06T00:18:44;4.43;;;1.40;;
30147;SDS011;16960;49.404;8.248;2024-01-06T00:21:11;1.40;;;1.30;;
30147;SDS011;16960;49.404;8.248;2024-01-06T00:23:37;6.30;;;2.00;;
30147;SDS011;16960;49.404;8.248;2024-01-06T00:26:04;2.77;;;2.10;;
30147;SDS011;16960;49.404;8.248;2024-01-06T00:28:31;2.50;;;1.67;;
30147;SDS011;16960;49.404;8.248;2024-01-06T00:30:59;1.47;;;1.37;;
30147;SDS011;16960;49.404;8.248;2024-01-06T00:33:26;1.50;;;1.40;;
30147;SDS011;16960;49.404;8.248;2024-01-06T00:35:53;2.17;;;1.37;;
30147;SDS011;16960;49.404;8.248;2024-01-06T00:38:21;2.97;;;1.30;;
30147;SDS011;16960;49.404;8.248;2024-01-06T00:40:47;3.20;;;1.57;;
30147;SDS011;16960;49.404;8.248;2024-01-06T00:43:14;3.20;;;1.77;;
30147;SDS011;16960;49.404;8.248;2024-01-06T00:45:41;9.80;;;1.67;;
30147;SDS011;16960;49.404;8.248;2024-01-06T00:48:09;2.27;;;1.67;;
30147;SDS011;16960;49.404;8.248;2024-01-06T00:51:06;2.40;;;1.77;;
30147;SDS011;16960;49.404;8.248;2024-01-06T00:53:33;2.70;;;1.60;;
30147;SDS011;16960;49.404;8.248;2024-01-06T00:56:00;3.40;;;2.00;;
30147;SDS011;16960;49.404;8.248;2024-01-06T00:58:27;3.50;;;1.70;;
30147;SDS011;16960;49.404;8.248;2024-01-06T01:00:54;1.67;;;1.20;;
30147;SDS011;16960;49.404;8.248;2024-01-06T01:03:22;2.23;;;1.20;;
30147;SDS011;16960;49.404;8.248;2024-01-06T01:05:49;1.43;;;1.23;;
30147;SDS011;16960;49.404;8.248;2024-01-06T01:08:16;1.63;;;1.30;;
30147;SDS011;16960;49.404;8.248;2024-01-06T01:10:43;2.97;;;1.57;;
30147;SDS011;16960;49.404;8.248;2024-01-06T01:13:10;1.90;;;1.60;;
30147;SDS011;16960;49.404;8.248;2024-01-06T01:15:37;1.80;;;1.60;;
30147;SDS011;16960;49.404;8.248;2024-01-06T01:18:04;3.07;;;1.67;;
30147;SDS011;16960;49.404;8.248;2024-01-06T01:20:32;1.77;;;1.50;;
30147;SDS011;16960;49.404;8.248;2024-01-06T01:22:59;1.83;;;1.13;;
30147;SDS011;16960;49.404;8.248;2024-01-06T01:25:26;2.10;;;1.90;;
30147;SDS011;16960;49.404;8.248;2024-01-06T01:27:53;2.60;;;1.67;;
30147;SDS011;16960;49.404;8.248;2024-01-06T01:30:20;2.93;;;1.43;;
30147;SDS011;16960;49.404;8.248;2024-01-06T01:32:47;1.50;;;1.20;;
30147;SDS011;16960;49.404;8.248;2024-01-06T01:35:14;2.70;;;1.53;;
30147;SDS011;16960;49.404;8.248;2024-01-06T01:37:42;3.40;;;1.67;;
30147;SDS011;16960;49.404;8.248;2024-01-06T01:40:09;1.83;;;1.47;;
30147;SDS011;16960;49.404;8.248;2024-01-06T01:42:37;1.70;;;1.23;;
30147;SDS011;16960;49.404;8.248;2024-01-06T01:45:04;1.40;;;1.20;;
30147;SDS011;16960;49.404;8.248;2024-01-06T01:47:31;2.60;;;1.20;;
30147;SDS011;16960;49.404;8.248;2024-01-06T01:49:58;2.47;;;1.50;;
30147;SDS011;16960;49.404;8.248;2024-01-06T01:52:25;2.37;;;1.23;;
30147;SDS011;16960;49.404;8.248;2024-01-06T01:54:54;1.93;;;1.40;;
30147;SDS011;16960;49.404;8.248;2024-01-06T01:57:22;2.10;;;1.50;;
30147;SDS011;16960;49.404;8.248;2024-01-06T01:59:51;2.63;;;1.30;;
30147;SDS011;16960;49.404;8.248;2024-01-06T02:02:19;1.80;;;1.47;;
30147;SDS011;16960;49.404;8.248;2024-01-06T02:04:47;1.70;;;1.37;;
30147;SDS011;16960;49.404;8.248;2024-01-06T02:07:14;2.13;;;1.47;;
30147;SDS011;16960;49.404;8.248;2024-01-06T02:09:42;3.70;;;1.10;;
30147;SDS011;16960;49.404;8.248;2024-01-06T02:12:10;1.60;;;1.30;;
30147;SDS011;16960;49.404;8.248;2024-01-06T02:14:37;1.50;;;1.20;;
30147;SDS011;16960;49.404;8.248;2024-01-06T02:17:04;1.83;;;1.27;;
30147;SDS011;16960;49.404;8.248;2024-01-06T02:19:31;1.33;;;1.10;;
30147;SDS011;16960;49.404;8.248;2024-01-06T02:21:59;1.53;;;1.43;;
30147;SDS011;16960;49.404;8.248;2024-01-06T02:24:26;1.17;;;1.07;;
30147;SDS011;16960;49.404;8.248;2024-01-06T02:26:53;2.00;;;1.40;;
30147;SDS011;16960;49.404;8.248;2024-01-06T02:29:20;1.30;;;1.10;;
30147;SDS011;16960;49.404;8.248;2024-01-06T02:31:47;1.17;;;1.07;;
30147;SDS011;16960;49.404;8.248;2024-01-06T02:34:14;0.97;;;0.87;;
30147;SDS011;16960;49.404;8.248;2024-01-06T02:36:41;2.27;;;1.50;;
30147;SDS011;16960;49.404;8.248;2024-01-06T02:39:09;2.83;;;1.10;;
30147;SDS011;16960;49.404;8.248;2024-01-06T02:41:36;1.83;;;1.20;;
30147;SDS011;16960;49.404;8.248;2024-01-06T02:44:03;1.13;;;0.90;;
30147;SDS011;16960;49.404;8.248;2024-01-06T02:46:30;1.50;;;1.10;;
30147;SDS011;16960;49.404;8.248;2024-01-06T02:48:57;2.40;;;1.27;;
30147;SDS011;16960;49.404;8.248;2024-01-06T02:51:24;1.53;;;1.20;;
30147;SDS011;16960;49.404;8.248;2024-01-06T02:53:51;1.53;;;1.43;;
30147;SDS011;16960;49.404;8.248;2024-01-06T02:56:19;1.10;;;1.00;;
30147;SDS011;16960;49.404;8.248;2024-01-06T02:58:46;1.47;;;0.90;;
30147;SDS011;16960;49.404;8.248;2024-01-06T03:01:13;1.13;;;1.03;;
30147;SDS011;16960;49.404;8.248;2024-01-06T03:03:40;1.23;;;1.10;;
30147;SDS011;16960;49.404;8.248;2024-01-06T03:06:07;1.00;;;0.90;;
30147;SDS011;16960;49.404;8.248;2024-01-06T03:08:33;1.03;;;0.90;;
30147;SDS011;16960;49.404;8.248;2024-01-06T03:11:00;0.90;;;0.90;;
30147;SDS011;16960;49.404;8.248;2024-01-06T03:13:30;1.90;;;1.37;;
30147;SDS011;16960;49.404;8.248;2024-01-06T03:15:57;1.43;;;0.90;;
30147;SDS011;16960;49.404;8.248;2024-01-06T03:18:27;1.67;;;1.10;;
30147;SDS011;16960;49.404;8.248;2024-01-06T03:20:54;2.27;;;1.43;;
30147;SDS011;16960;49.404;8.248;2024-01-06T03:23:21;1.60;;;1.30;;
30147;SDS011;16960;49.404;8.248;2024-01-06T03:25:48;1.87;;;1.10;;
30147;SDS011;16960;49.404;8.248;2024-01-06T03:28:14;1.17;;;1.07;;
30147;SDS011;16960;49.404;8.248;2024-01-06T03:30:43;1.00;;;0.90;;
30147;SDS011;16960;49.404;8.248;2024-01-06T03:33:10;1.40;;;1.10;;
30147;SDS011;16960;49.404;8.248;2024-01-06T03:35:37;1.57;;;0.80;;
30147;SDS011;16960;49.404;8.248;2024-01-06T03:38:04;1.13;;;1.00;;
30147;SDS011;16960;49.404;8.248;2024-01-06T03:40:31;1.50;;;0.93;;
30147;SDS011;16960;49.404;8.248;2024-01-06T03:42:58;1.90;;;1.20;;
30147;SDS011;16960;49.404;8.248;2024-01-06T03:45:25;1.10;;;0.83;;
30147;SDS011;16960;49.404;8.248;2024-01-06T03:47:53;1.27;;;0.87;;
30147;SDS011;16960;49.404;8.248;2024-01-06T03:50:20;1.40;;;0.97;;
30147;SDS011;16960;49.404;8.248;2024-01-06T03:52:47;1.10;;;0.90;;
30147;SDS011;16960;49.404;8.248;2024-01-06T03:55:15;0.97;;;0.87;;
30147;SDS011;16960;49.404;8.248;2024-01-06T03:57:41;1.17;;;1.07;;
30147;SDS011;16960;49.404;8.248;2024-01-06T04:00:09;1.03;;;0.77;;
30147;SDS011;16960;49.404;8.248;2024-01-06T04:02:36;1.00;;;0.90;;
30147;SDS011;16960;49.404;8.248;2024-01-06T04:05:04;2.60;;;0.80;;
30147;SDS011;16960;49.404;8.248;2024-01-06T04:07:32;1.90;;;1.13;;
30147;SDS011;16960;49.404;8.248;2024-01-06T04:09:58;0.90;;;0.90;;
30147;SDS011;16960;49.404;8.248;2024-01-06T04:12:25;1.60;;;0.83;;
30147;SDS011;16960;49.404;8.248;2024-01-06T04:14:52;2.40;;;0.90;;
30147;SDS011;16960;49.404;8.248;2024-01-06T04:17:19;1.00;;;0.90;;
30147;SDS011;16960;49.404;8.248;2024-01-06T04:19:47;1.50;;;1.10;;
30147;SDS011;16960;49.404;8.248;2024-01-06T04:22:15;0.73;;;0.73;;
30147;SDS011;16960;49.404;8.248;2024-01-06T04:24:42;1.13;;;0.97;;
30147;SDS011;16960;49.404;8.248;2024-01-06T04:27:09;2.13;;;1.00;;
30147;SDS011;16960;49.404;8.248;2024-01-06T04:29:36;1.10;;;0.83;;
30147;SDS011;16960;49.404;8.248;2024-01-06T04:32:03;1.17;;;1.07;;
30147;SDS011;16960;49.404;8.248;2024-01-06T04:34:31;2.20;;;1.00;;
30147;SDS011;16960;49.404;8.248;2024-01-06T04:36:58;1.00;;;0.90;;
30147;SDS011;16960;49.404;8.248;2024-01-06T04:39:26;0.80;;;0.67;;
30147;SDS011;16960;49.404;8.248;2024-01-06T04:41:53;1.40;;;0.90;;
30147;SDS011;16960;49.404;8.248;2024-01-06T04:44:20;1.60;;;1.07;;
30147;SDS011;16960;49.404;8.248;2024-01-06T04:46:48;0.90;;;0.70;;
30147;SDS011;16960;49.404;8.248;2024-01-06T04:49:15;1.20;;;0.90;;
30147;SDS011;16960;49.404;8.248;2024-01-06T04:51:41;1.07;;;0.93;;
30147;SDS011;16960;49.404;8.248;2024-01-06T04:54:08;0.80;;;0.80;;
30147;SDS011;16960;49.404;8.248;2024-01-06T04:56:37;0.63;;;0.63;;
30147;SDS011;16960;49.404;8.248;2024-01-06T04:59:04;0.80;;;0.80;;
30147;SDS011;16960;49.404;8.248;2024-01-06T05:01:31;0.90;;;0.63;;
30147;SDS011;16960;49.404;8.248;2024-01-06T05:03:58;1.07;;;0.90;;
30147;SDS011;16960;49.404;8.248;2024-01-06T05:06:25;1.10;;;1.00;;
30147;SDS011;16960;49.404;8.248;2024-01-06T05:08:52;1.00;;;0.70;;
30147;SDS011;16960;49.404;8.248;2024-01-06T05:11:19;1.40;;;0.97;;
30147;SDS011;16960;49.404;8.248;2024-01-06T05:13:47;0.93;;;0.80;;
30147;SDS011;16960;49.404;8.248;2024-01-06T05:16:14;1.17;;;0.70;;
30147;SDS011;16960;49.404;8.248;2024-01-06T05:18:41;1.63;;;1.17;;
30147;SDS011;16960;49.404;8.248;2024-01-06T05:21:08;1.73;;;1.00;;
30147;SDS011;16960;49.404;8.248;2024-01-06T05:23:35;1.10;;;0.80;;
30147;SDS011;16960;49.404;8.248;2024-01-06T05:26:02;0.50;;;0.50;;
30147;SDS011;16960;49.404;8.248;2024-01-06T05:28:29;0.80;;;0.70;;
30147;SDS011;16960;49.404;8.248;2024-01-06T05:30:57;0.93;;;0.80;;
30147;SDS011;16960;49.404;8.248;2024-01-06T05:33:24;1.53;;;1.10;;
30147;SDS011;16960;49.404;8.248;2024-01-06T05:35:51;1.33;;;0.70;;
30147;SDS011;16960;49.404;8.248;2024-01-06T05:38:18;1.50;;;0.87;;
30147;SDS011;16960;49.404;8.248;2024-01-06T05:40:45;1.27;;;0.87;;
30147;SDS011;16960;49.404;8.248;2024-01-06T05:43:12;1.40;;;1.00;;
30147;SDS011;16960;49.404;8.248;2024-01-06T05:45:39;1.13;;;1.00;;
30147;SDS011;16960;49.404;8.248;2024-01-06T05:48:09;0.93;;;0.90;;
30147;SDS011;16960;49.404;8.248;2024-01-06T05:50:37;1.17;;;0.80;;
30147;SDS011;16960;49.404;8.248;2024-01-06T05:53:04;1.33;;;0.70;;
30147;SDS011;16960;49.404;8.248;2024-01-06T05:55:31;1.20;;;0.90;;
30147;SDS011;16960;49.404;8.248;2024-01-06T05:57:58;1.10;;;0.93;;
30147;SDS011;16960;49.404;8.248;2024-01-06T06:00:26;1.33;;;0.77;;
30147;SDS011;16960;49.404;8.248;2024-01-06T06:02:52;0.77;;;0.70;;
30147;SDS011;16960;49.404;8.248;2024-01-06T06:05:21;0.83;;;0.80;;
30147;SDS011;16960;49.404;8.248;2024-01-06T06:07:48;1.00;;;0.60;;
30147;SDS011;16960;49.404;8.248;2024-01-06T06:10:15;0.70;;;0.70;;
30147;SDS011;16960;49.404;8.248;2024-01-06T06:12:43;1.10;;;0.80;;
30147;SDS011;16960;49.404;8.248;2024-01-06T06:15:10;1.37;;;0.80;;
30147;SDS011;16960;49.404;8.248;2024-01-06T06:17:38;1.10;;;0.80;;
30147;SDS011;16960;49.404;8.248;2024-01-06T06:20:05;0.80;;;0.77;;
30147;SDS011;16960;49.404;8.248;2024-01-06T06:22:34;1.90;;;1.10;;
30147;SDS011;16960;49.404;8.248;2024-01-06T06:25:01;1.80;;;0.87;;
30147;SDS011;16960;49.404;8.248;2024-01-06T06:27:28;0.60;;;0.60;;
30147;SDS011;16960;49.404;8.248;2024-01-06T06:29:55;0.70;;;0.60;;
30147;SDS011;16960;49.404;8.248;2024-01-06T06:32:22;0.70;;;0.50;;
30147;SDS011;16960;49.404;8.248;2024-01-06T06:34:50;0.70;;;0.50;;
30147;SDS011;16960;49.404;8.248;2024-01-06T06:37:17;0.70;;;0.70;;
30147;SDS011;16960;49.404;8.248;2024-01-06T06:39:46;1.43;;;0.70;;
30147;SDS011;16960;49.404;8.248;2024-01-06T06:42:13;1.10;;;0.90;;
30147;SDS011;16960;49.404;8.248;2024-01-06T06:44:39;1.07;;;0.70;;
30147;SDS011;16960;49.404;8.248;2024-01-06T06:47:06;1.50;;;0.80;;
30147;SDS011;16960;49.404;8.248;2024-01-06T06:49:33;1.70;;;0.93;;
30147;SDS011;16960;49.404;8.248;2024-01-06T06:52:00;1.13;;;0.90;;
30147;SDS011;16960;49.404;8.248;2024-01-06T06:54:28;0.73;;;0.57;;
30147;SDS011;16960;49.404;8.248;2024-01-06T06:56:57;1.23;;;0.97;;
30147;SDS011;16960;49.404;8.248;2024-01-06T06:59:24;1.10;;;1.00;;
30147;SDS011;16960;49.404;8.248;2024-01-06T07:01:51;1.00;;;0.67;;
30147;SDS011;16960;49.404;8.248;2024-01-06T07:04:18;1.23;;;1.00;;
30147;SDS011;16960;49.404;8.248;2024-01-06T07:06:44;1.07;;;0.90;;
30147;SDS011;16960;49.404;8.248;2024-01-06T07:09:11;1.00;;;0.70;;
30147;SDS011;16960;49.404;8.248;2024-01-06T07:11:38;0.80;;;0.80;;
30147;SDS011;16960;49.404;8.248;2024-01-06T07:14:06;1.10;;;0.60;;
30147;SDS011;16960;49.404;8.248;2024-01-06T07:16:33;1.00;;;0.60;;
30147;SDS011;16960;49.404;8.248;2024-01-06T07:19:00;1.50;;;0.90;;
30147;SDS011;16960;49.404;8.248;2024-01-06T07:21:27;1.10;;;0.70;;
30147;SDS011;16960;49.404;8.248;2024-01-06T07:23:54;1.07;;;0.83;;
30147;SDS011;16960;49.404;8.248;2024-01-06T07:26:21;2.17;;;0.60;;
30147;SDS011;16960;49.404;8.248;2024-01-06T07:28:48;1.17;;;0.67;;
30147;SDS011;16960;49.404;8.248;2024-01-06T07:31:16;0.80;;;0.80;;
30147;SDS011;16960;49.404;8.248;2024-01-06T07:33:43;1.40;;;0.97;;
30147;SDS011;16960;49.404;8.248;2024-01-06T07:36:10;0.87;;;0.83;;
30147;SDS011;16960;49.404;8.248;2024-01-06T07:38:37;1.00;;;0.70;;
30147;SDS011;16960;49.404;8.248;2024-01-06T07:41:04;0.70;;;0.63;;
30147;SDS011;16960;49.404;8.248;2024-01-06T07:43:32;1.03;;;0.80;;
30147;SDS011;16960;49.404;8.248;2024-01-06T07:45:59;0.80;;;0.80;;
30147;SDS011;16960;49.404;8.248;2024-01-06T07:48:30;0.70;;;0.50;;
30147;SDS011;16960;49.404;8.248;2024-01-06T07:50:56;0.80;;;0.80;;
30147;SDS011;16960;49.404;8.248;2024-01-06T07:53:23;0.87;;;0.60;;
30147;SDS011;16960;49.404;8.248;2024-01-06T07:55:50;0.83;;;0.60;;
30147;SDS011;16960;49.404;8.248;2024-01-06T07:58:17;0.70;;;0.70;;
30147;SDS011;16960;49.404;8.248;2024-01-06T08:00:45;0.60;;;0.60;;
30147;SDS011;16960;49.404;8.248;2024-01-06T08:03:12;0.83;;;0.80;;
30147;SDS011;16960;49.404;8.248;2024-01-06T08:05:40;0.80;;;0.70;;
30147;SDS011;16960;49.404;8.248;2024-01-06T08:08:07;0.77;;;0.67;;
30147;SDS011;16960;49.404;8.248;2024-01-06T08:10:34;0.73;;;0.73;;
30147;SDS011;16960;49.404;8.248;2024-01-06T08:13:01;1.50;;;1.00;;
30147;SDS011;16960;49.404;8.248;2024-01-06T08:15:29;1.00;;;0.80;;
30147;SDS011;16960;49.404;8.248;2024-01-06T08:17:57;1.37;;;0.93;;
30147;SDS011;16960;49.404;8.248;2024-01-06T08:20:24;1.77;;;1.00;;
30147;SDS011;16960;49.404;8.248;2024-01-06T08:22:52;1.23;;;0.93;;
30147;SDS011;16960;49.404;8.248;2024-01-06T08:25:20;0.80;;;0.80;;
30147;SDS011;16960;49.404;8.248;2024-01-06T08:27:47;2.07;;;0.77;;
30147;SDS011;16960;49.404;8.248;2024-01-06T08:30:13;3.10;;;0.93;;
30147;SDS011;16960;49.404;8.248;2024-01-06T08:32:40;6.83;;;1.10;;
30147;SDS011;16960;49.404;8.248;2024-01-06T08:35:08;1.33;;;0.93;;
30147;SDS011;16960;49.404;8.248;2024-01-06T08:37:35;1.40;;;1.00;;
30147;SDS011;16960;49.404;8.248;2024-01-06T08:40:04;2.07;;;0.80;;
30147;SDS011;16960;49.404;8.248;2024-01-06T08:42:32;0.93;;;0.63;;
30147;SDS011;16960;49.404;8.248;2024-01-06T08:44:59;3.37;;;0.87;;
30147;SDS011;16960;49.404;8.248;2024-01-06T08:47:26;1.80;;;1.00;;
30147;SDS011;16960;49.404;8.248;2024-01-06T08:49:53;1.60;;;0.70;;
30147;SDS011;16960;49.404;8.248;2024-01-06T08:52:20;1.23;;;0.90;;
30147;SDS011;16960;49.404;8.248;2024-01-06T08:54:47;2.20;;;0.83;;
30147;SDS011;16960;49.404;8.248;2024-01-06T08:57:15;3.53;;;0.70;;
30147;SDS011;16960;49.404;8.248;2024-01-06T08:59:42;1.40;;;0.70;;
30147;SDS011;16960;49.404;8.248;2024-01-06T09:02:10;0.63;;;0.60;;
30147;SDS011;16960;49.404;8.248;2024-01-06T09:04:37;0.67;;;0.60;;
30147;SDS011;16960;49.404;8.248;2024-01-06T09:07:04;1.43;;;0.97;;
30147;SDS011;16960;49.404;8.248;2024-01-06T09:09:31;1.20;;;0.70;;
30147;SDS011;16960;49.404;8.248;2024-01-06T09:11:58;1.17;;;0.80;;
30147;SDS011;16960;49.404;8.248;2024-01-06T09:14:27;1.27;;;0.80;;
30147;SDS011;16960;49.404;8.248;2024-01-06T09:16:55;0.97;;;0.80;;
30147;SDS011;16960;49.404;8.248;2024-01-06T09:19:22;1.57;;;0.80;;
30147;SDS011;16960;49.404;8.248;2024-01-06T09:21:49;1.67;;;1.10;;
30147;SDS011;16960;49.404;8.248;2024-01-06T09:24:16;3.70;;;1.33;;
30147;SDS011;16960;49.404;8.248;2024-01-06T09:26:42;1.40;;;0.87;;
30147;SDS011;16960;49.404;8.248;2024-01-06T09:29:10;1.57;;;1.00;;
30147;SDS011;16960;49.404;8.248;2024-01-06T09:31:38;3.47;;;1.13;;
30147;SDS011;16960;49.404;8.248;2024-01-06T09:34:07;1.47;;;0.97;;
30147;SDS011;16960;49.404;8.248;2024-01-06T09:36:37;3.50;;;1.03;;
30147;SDS011;16960;49.404;8.248;2024-01-06T09:39:04;1.70;;;0.87;;
30147;SDS011;16960;49.404;8.248;2024-01-06T09:41:33;0.83;;;0.70;;
30147;SDS011;16960;49.404;8.248;2024-01-06T09:44:00;0.77;;;0.63;;
30147;SDS011;16960;49.404;8.248;2024-01-06T09:46:27;0.93;;;0.87;;
30147;SDS011;16960;49.404;8.248;2024-01-06T09:48:57;1.70;;;0.97;;
30147;SDS011;16960;49.404;8.248;2024-01-06T09:51:25;1.10;;;0.73;;
30147;SDS011;16960;49.404;8.248;2024-01-06T09:53:56;0.87;;;0.70;;
30147;SDS011;16960;49.404;8.248;2024-01-06T09:56:24;1.00;;;0.90;;
30147;SDS011;16960;49.404;8.248;2024-01-06T09:58:53;0.63;;;0.60;;
30147;SDS011;16960;49.404;8.248;2024-01-06T10:01:20;1.43;;;1.10;;
30147;SDS011;16960;49.404;8.248;2024-01-06T10:03:47;2.00;;;0.90;;
30147;SDS011;16960;49.404;8.248;2024-01-06T10:06:16;2.10;;;0.93;;
30147;SDS011;16960;49.404;8.248;2024-01-06T10:08:48;1.57;;;0.80;;
30147;SDS011;16960;49.404;8.248;2024-01-06T10:11:15;0.70;;;0.70;;
30147;SDS011;16960;49.404;8.248;2024-01-06T10:13:42;7.90;;;1.00;;
30147;SDS011;16960;49.404;8.248;2024-01-06T10:16:09;3.83;;;1.10;;
30147;SDS011;16960;49.404;8.248;2024-01-06T10:18:36;2.07;;;1.20;;
30147;SDS011;16960;49.404;8.248;2024-01-06T10:21:03;1.67;;;1.00;;
30147;SDS011;16960;49.404;8.248;2024-01-06T10:23:33;0.90;;;0.70;;
30147;SDS011;16960;49.404;8.248;2024-01-06T10:26:01;1.77;;;1.00;;
30147;SDS011;16960;49.404;8.248;2024-01-06T10:28:28;2.20;;;1.10;;
30147;SDS011;16960;49.404;8.248;2024-01-06T10:30:56;4.23;;;1.10;;
30147;SDS011;16960;49.404;8.248;2024-01-06T10:33:25;2.53;;;1.10;;
30147;SDS011;16960;49.404;8.248;2024-01-06T10:35:52;0.83;;;0.73;;
30147;SDS011;16960;49.404;8.248;2024-01-06T10:38:20;1.57;;;1.13;;
30147;SDS011;16960;49.404;8.248;2024-01-06T10:40:58;1.13;;;0.67;;
30147;SDS011;16960;49.404;8.248;2024-01-06T10:43:25;0.60;;;0.57;;
30147;SDS011;16960;49.404;8.248;2024-01-06T10:45:54;1.10;;;0.90;;
30147;SDS011;16960;49.404;8.248;2024-01-06T10:48:24;1.97;;;1.10;;
30147;SDS011;16960;49.404;8.248;2024-01-06T10:50:52;1.30;;;1.00;;
30147;SDS011;16960;49.404;8.248;2024-01-06T10:53:21;2.70;;;0.77;;
30147;SDS011;16960;49.404;8.248;2024-01-06T10:55:49;1.17;;;0.97;;
30147;SDS011;16960;49.404;8.248;2024-01-06T10:58:18;0.87;;;0.80;;
30147;SDS011;16960;49.404;8.248;2024-01-06T11:00:45;1.17;;;1.07;;
30147;SDS011;16960;49.404;8.248;2024-01-06T11:03:13;0.83;;;0.73;;
30147;SDS011;16960;49.404;8.248;2024-01-06T11:05:41;1.07;;;0.80;;
30147;SDS011;16960;49.404;8.248;2024-01-06T11:08:08;0.90;;;0.70;;
30147;SDS011;16960;49.404;8.248;2024-01-06T11:10:35;1.33;;;0.87;;
30147;SDS011;16960;49.404;8.248;2024-01-06T11:13:10;2.00;;;0.67;;
30147;SDS011;16960;49.404;8.248;2024-01-06T11:15:43;1.17;;;0.80;;
30147;SDS011;16960;49.404;8.248;2024-01-06T11:21:14;0.80;;;0.80;;
30147;SDS011;16960;49.404;8.248;2024-01-06T11:26:45;1.43;;;0.70;;
30147;SDS011;16960;49.404;8.248;2024-01-06T11:29:16;1.07;;;0.97;;
30147;SDS011;16960;49.404;8.248;2024-01-06T11:32:07;1.80;;;1.43;;
30147;SDS011;16960;49.404;8.248;2024-01-06T11:34:52;1.53;;;0.70;;
30147;SDS011;16960;49.404;8.248;2024-01-06T11:37:24;1.53;;;1.00;;
30147;SDS011;16960;49.404;8.248;2024-01-06T11:40:01;1.30;;;0.70;;
30147;SDS011;16960;49.404;8.248;2024-01-06T11:42:31;3.40;;;1.00;;
30147;SDS011;16960;49.404;8.248;2024-01-06T11:45:01;0.73;;;0.70;;
30147;SDS011;16960;49.404;8.248;2024-01-06T11:47:31;1.93;;;0.73;;
30147;SDS011;16960;49.404;8.248;2024-01-06T11:49:59;2.50;;;0.80;;
30147;SDS011;16960;49.404;8.248;2024-01-06T11:52:29;0.87;;;0.80;;
30147;SDS011;16960;49.404;8.248;2024-01-06T11:54:56;1.10;;;0.70;;
30147;SDS011;16960;49.404;8.248;2024-01-06T11:57:24;1.03;;;0.90;;
30147;SDS011;16960;49.404;8.248;2024-01-06T11:59:52;1.10;;;0.70;;
30147;SDS011;16960;49.404;8.248;2024-01-06T12:02:18;0.97;;;0.80;;
30147;SDS011;16960;49.404;8.248;2024-01-06T12:04:49;1.00;;;0.90;;
30147;SDS011;16960;49.404;8.248;2024-01-06T12:07:17;0.67;;;0.63;;
30147;SDS011;16960;49.404;8.248;2024-01-06T12:09:45;1.00;;;0.90;;
30147;SDS011;16960;49.404;8.248;2024-01-06T12:12:14;1.00;;;0.80;;
30147;SDS011;16960;49.404;8.248;2024-01-06T12:14:41;1.90;;;0.70;;
30147;SDS011;16960;49.404;8.248;2024-01-06T12:17:09;1.47;;;1.00;;
30147;SDS011;16960;49.404;8.248;2024-01-06T12:19:38;2.20;;;0.93;;
30147;SDS011;16960;49.404;8.248;2024-01-06T12:22:09;0.90;;;0.73;;
30147;SDS011;16960;49.404;8.248;2024-01-06T12:24:38;1.10;;;1.00;;
30147;SDS011;16960;49.404;8.248;2024-01-06T12:27:06;1.00;;;0.80;;
30147;SDS011;16960;49.404;8.248;2024-01-06T12:29:36;2.37;;;1.03;;
30147;SDS011;16960;49.404;8.248;2024-01-06T12:32:05;2.30;;;0.80;;
30147;SDS011;16960;49.404;8.248;2024-01-06T12:34:32;4.60;;;1.30;;
30147;SDS011;16960;49.404;8.248;2024-01-06T12:36:59;2.07;;;0.87;;
30147;SDS011;16960;49.404;8.248;2024-01-06T12:39:29;2.50;;;0.80;;
30147;SDS011;16960;49.404;8.248;2024-01-06T12:41:57;1.87;;;1.10;;
30147;SDS011;16960;49.404;8.248;2024-01-06T12:44:25;0.73;;;0.60;;
30147;SDS011;16960;49.404;8.248;2024-01-06T12:46:52;2.30;;;1.13;;
30147;SDS011;16960;49.404;8.248;2024-01-06T12:49:19;4.83;;;1.00;;
30147;SDS011;16960;49.404;8.248;2024-01-06T12:51:46;1.80;;;0.80;;
30147;SDS011;16960;49.404;8.248;2024-01-06T12:54:13;0.87;;;0.83;;
30147;SDS011;16960;49.404;8.248;2024-01-06T12:56:41;1.27;;;1.00;;
30147;SDS011;16960;49.404;8.248;2024-01-06T12:59:08;2.07;;;1.17;;
30147;SDS011;16960;49.404;8.248;2024-01-06T13:01:36;1.80;;;0.97;;
30147;SDS011;16960;49.404;8.248;2024-01-06T13:04:03;4.67;;;1.20;;
30147;SDS011;16960;49.404;8.248;2024-01-06T13:06:30;0.70;;;0.70;;
30147;SDS011;16960;49.404;8.248;2024-01-06T13:08:57;2.03;;;1.10;;
30147;SDS011;16960;49.404;8.248;2024-01-06T13:11:24;1.40;;;0.90;;
30147;SDS011;16960;49.404;8.248;2024-01-06T13:13:52;1.67;;;0.97;;
30147;SDS011;16960;49.404;8.248;2024-01-06T13:16:19;1.77;;;0.90;;
30147;SDS011;16960;49.404;8.248;2024-01-06T13:18:46;1.40;;;1.20;;
30147;SDS011;16960;49.404;8.248;2024-01-06T13:21:13;1.30;;;1.03;;
30147;SDS011;16960;49.404;8.248;2024-01-06T13:23:40;0.87;;;0.80;;
30147;SDS011;16960;49.404;8.248;2024-01-06T13:26:07;1.80;;;0.90;;
30147;SDS011;16960;49.404;8.248;2024-01-06T13:28:35;1.13;;;0.80;;
30147;SDS011;16960;49.404;8.248;2024-01-06T13:31:03;1.50;;;0.83;;
30147;SDS011;16960;49.404;8.248;2024-01-06T13:33:30;0.80;;;0.80;;
30147;SDS011;16960;49.404;8.248;2024-01-06T13:35:57;1.43;;;1.10;;
30147;SDS011;16960;49.404;8.248;2024-01-06T13:38:26;1.30;;;0.90;;
30147;SDS011;16960;49.404;8.248;2024-01-06T13:40:53;1.60;;;1.37;;
30147;SDS011;16960;49.404;8.248;2024-01-06T13:43:20;1.00;;;0.90;;
30147;SDS011;16960;49.404;8.248;2024-01-06T13:45:47;2.60;;;1.17;;
30147;SDS011;16960;49.404;8.248;2024-01-06T13:48:15;2.67;;;1.10;;
30147;SDS011;16960;49.404;8.248;2024-01-06T13:50:43;1.17;;;1.07;;
30147;SDS011;16960;49.404;8.248;2024-01-06T13:53:11;0.80;;;0.80;;
30147;SDS011;16960;49.404;8.248;2024-01-06T13:55:38;1.47;;;1.30;;
30147;SDS011;16960;49.404;8.248;2024-01-06T13:58:05;0.93;;;0.80;;
30147;SDS011;16960;49.404;8.248;2024-01-06T14:00:34;1.30;;;1.20;;
30147;SDS011;16960;49.404;8.248;2024-01-06T14:03:01;1.17;;;1.03;;
30147;SDS011;16960;49.404;8.248;2024-01-06T14:05:30;0.97;;;0.90;;
30147;SDS011;16960;49.404;8.248;2024-01-06T14:07:57;1.13;;;1.03;;
30147;SDS011;16960;49.404;8.248;2024-01-06T14:10:24;2.37;;;1.07;;
30147;SDS011;16960;49.404;8.248;2024-01-06T14:12:51;1.13;;;1.03;;
30147;SDS011;16960;49.404;8.248;2024-01-06T14:15:20;1.00;;;0.90;;
30147;SDS011;16960;49.404;8.248;2024-01-06T14:17:46;1.10;;;0.97;;
30147;SDS011;16960;49.404;8.248;2024-01-06T14:20:15;0.80;;;0.77;;
30147;SDS011;16960;49.404;8.248;2024-01-06T14:22:44;1.10;;;1.00;;
30147;SDS011;16960;49.404;8.248;2024-01-06T14:25:11;1.10;;;1.00;;
30147;SDS011;16960;49.404;8.248;2024-01-06T14:27:38;0.80;;;0.63;;
30147;SDS011;16960;49.404;8.248;2024-01-06T14:30:06;1.53;;;1.00;;
30147;SDS011;16960;49.404;8.248;2024-01-06T14:32:34;1.00;;;0.93;;
30147;SDS011;16960;49.404;8.248;2024-01-06T14:35:02;1.37;;;0.90;;
30147;SDS011;16960;49.404;8.248;2024-01-06T14:37:31;1.90;;;1.20;;
30147;SDS011;16960;49.404;8.248;2024-01-06T14:39:59;3.13;;;1.40;;
30147;SDS011;16960;49.404;8.248;2024-01-06T14:42:30;1.23;;;1.13;;
30147;SDS011;16960;49.404;8.248;2024-01-06T14:44:57;1.37;;;1.20;;
30147;SDS011;16960;49.404;8.248;2024-01-06T14:47:24;1.67;;;1.27;;
30147;SDS011;16960;49.404;8.248;2024-01-06T14:49:51;1.33;;;1.13;;
30147;SDS011;16960;49.404;8.248;2024-01-06T14:52:18;1.20;;;1.10;;
30147;SDS011;16960;49.404;8.248;2024-01-06T14:54:46;1.50;;;1.03;;
30147;SDS011;16960;49.404;8.248;2024-01-06T14:57:15;1.50;;;1.20;;